Gold Beach, Oregon
Current Conditions -  °F | °C
As of 5:25 PM on Wednesday 22 Oct 2014 (Local Time) from KBOK Reporting Station
Moderate Rain Moderate Rain  
Wind Chill: 57°   Ceiling: 100
Heat Index: 57°   Visibility: 0.5mi
Dew Point: 57°   Wind: 17mph
Humidity: 100%   Direction: 170°S
Pressure: 29.89"   Gusts: 32mph
Location:  42.41°N, 124.42°W
Report Text: KBOK 230025Z AUTO 17015G28KT 1/2SM RA FG BKN001 OVC018 14/14 A2989 RMK AO2 P0016 PK WND 17028/0021
Loading
Personal Weather Stations






























Interactive Weather Map New forecast layout! Learn more

10-Day Weather Forecast

Advertisements
Track Severe Weather on mobile